Time;durP1;ratioP1;P1;durP2;ratioP2;P2;SDS_P1;SDS_P2;PMS_P1;PMS_P2;Temp;Humidity;BMP_temperature;BMP_pressure;BME280_temperature;BME280_humidity;BME280_pressure;Samples;Min_cycle;Max_cycle;Signal;HPM_P1;HPM_P2
2021/08/28 00:01:57;;;;;;;6.00;3.87;;;;;;;16.60;66.17;97810.28;8414047;28;20267;-67
2021/08/28 00:06:02;;;;;;;4.80;4.10;;;;;;;16.68;65.72;97811.50;8415270;28;20203;-67
2021/08/28 00:10:06;;;;;;;4.90;4.13;;;;;;;16.66;66.29;97821.22;8415143;28;20211;-67
2021/08/28 00:14:09;;;;;;;4.07;3.73;;;;;;;16.58;66.49;97816.56;8414848;28;20207;-67
2021/08/28 00:18:12;;;;;;;6.07;3.20;;;;;;;16.62;66.55;97823.25;8414928;28;20223;-67
2021/08/28 00:22:16;;;;;;;6.07;3.67;;;;;;;16.64;66.05;97818.75;8414965;28;20199;-67
2021/08/28 00:26:18;;;;;;;3.53;3.20;;;;;;;16.53;66.04;97819.50;8420742;28;20206;-67
2021/08/28 00:30:21;;;;;;;4.00;3.17;;;;;;;16.31;67.09;97820.16;8420637;28;20199;-67
2021/08/28 00:34:24;;;;;;;3.30;3.00;;;;;;;16.61;65.92;97818.97;8420607;28;20205;-67
2021/08/28 00:38:28;;;;;;;3.23;2.60;;;;;;;16.63;66.18;97814.47;8420316;28;20222;-67
2021/08/28 00:42:31;;;;;;;3.10;2.80;;;;;;;16.67;65.97;97820.31;8420209;28;20393;-67
2021/08/28 00:46:34;;;;;;;3.60;2.77;;;;;;;16.67;66.07;97813.28;8420161;28;20203;-67
2021/08/28 00:50:38;;;;;;;4.90;2.90;;;;;;;16.57;66.38;97823.56;8420006;28;20526;-67
2021/08/28 00:54:42;;;;;;;3.57;2.90;;;;;;;16.63;66.02;97822.28;8419925;28;20202;-67
2021/08/28 00:58:44;;;;;;;4.10;3.10;;;;;;;16.68;66.08;97822.81;8419598;28;20223;-67
2021/08/28 01:02:48;;;;;;;2.77;2.57;;;;;;;16.69;66.35;97823.63;8419822;28;20406;-67
2021/08/28 01:06:55;;;;;;;3.13;2.80;;;;;;;16.60;66.20;97823.38;8419566;28;20213;-67
2021/08/28 01:11:07;;;;;;;4.77;3.00;;;;;;;16.60;65.99;97825.97;8419785;28;20249;-67
2021/08/28 01:15:12;;;;;;;4.00;3.30;;;;;;;16.66;66.30;97827.31;8419597;28;20203;-67
2021/08/28 01:19:20;;;;;;;5.20;3.37;;;;;;;16.58;66.30;97821.78;8419196;28;20206;-67
2021/08/28 01:23:23;;;;;;;10.53;3.50;;;;;;;16.66;66.14;97823.84;8419176;28;20203;-67
2021/08/28 01:27:29;;;;;;;3.43;2.97;;;;;;;16.68;65.91;97816.72;8419181;28;20210;-67
2021/08/28 01:31:34;;;;;;;4.80;3.37;;;;;;;16.65;65.74;97824.81;8418991;28;20362;-67
2021/08/28 01:35:37;;;;;;;5.50;3.30;;;;;;;16.67;65.71;97822.91;8418295;28;20227;-67
2021/08/28 01:39:42;;;;;;;3.53;2.90;;;;;;;16.61;65.84;97827.63;8418414;28;20199;-67
2021/08/28 01:43:45;;;;;;;6.77;3.20;;;;;;;16.68;65.79;97828.03;8418360;28;20218;-67
2021/08/28 01:47:51;;;;;;;6.10;3.20;;;;;;;16.63;65.70;97824.09;8418234;28;20517;-67
2021/08/28 01:51:54;;;;;;;5.03;3.00;;;;;;;16.58;65.88;97822.63;8418265;28;20512;-67
2021/08/28 01:55:57;;;;;;;5.50;3.33;;;;;;;16.58;65.69;97817.41;8417637;28;20238;-67
2021/08/28 02:00:01;;;;;;;5.40;3.10;;;;;;;16.59;66.05;97818.25;8417702;28;20206;-67
2021/08/28 02:04:05;;;;;;;4.33;3.30;;;;;;;16.56;65.85;97819.31;8417383;28;20238;-67
2021/08/28 02:08:10;;;;;;;3.17;2.87;;;;;;;16.59;65.72;97824.28;8417470;28;20229;-67
2021/08/28 02:12:17;;;;;;;4.30;3.07;;;;;;;16.63;65.56;97826.69;8417442;28;20207;-67
2021/08/28 02:16:23;;;;;;;10.73;3.47;;;;;;;16.67;65.34;97821.13;8417300;28;20230;-67
2021/08/28 02:20:31;;;;;;;4.40;3.00;;;;;;;16.57;65.48;97827.97;8417329;28;20199;-67
2021/08/28 02:24:36;;;;;;;9.00;3.23;;;;;;;16.46;66.30;97828.72;8417178;28;20221;-67
2021/08/28 02:28:43;;;;;;;4.27;3.13;;;;;;;16.53;66.03;97829.97;8416996;28;20402;-67
2021/08/28 02:32:47;;;;;;;5.70;2.90;;;;;;;16.52;65.92;97830.06;8416959;28;20199;-67
2021/08/28 02:36:51;;;;;;;3.17;2.80;;;;;;;16.54;66.04;97828.19;8416700;28;20237;-67
2021/08/28 02:40:56;;;;;;;4.53;2.90;;;;;;;16.49;66.32;97827.69;8416570;28;20206;-67
2021/08/28 02:44:58;;;;;;;3.50;2.97;;;;;;;16.51;66.12;97823.19;8416168;28;20199;-67
2021/08/28 02:49:05;;;;;;;5.70;2.90;;;;;;;16.50;66.09;97819.72;8416158;28;20407;-67
2021/08/28 02:53:12;;;;;;;4.20;2.77;;;;;;;16.51;65.90;97826.63;8416497;28;20199;-67
2021/08/28 02:57:15;;;;;;;4.97;2.77;;;;;;;16.55;65.92;97828.06;8416196;28;20529;-68
2021/08/28 03:01:18;;;;;;;3.17;2.90;;;;;;;16.40;66.46;97826.53;8416262;28;20217;-67
2021/08/28 03:05:22;;;;;;;5.73;3.03;;;;;;;16.40;66.66;97827.38;8415943;28;20239;-67
2021/08/28 03:09:26;;;;;;;7.20;2.67;;;;;;;16.40;66.69;97821.31;8416122;28;20207;-67
2021/08/28 03:13:29;;;;;;;3.60;2.43;;;;;;;16.47;66.48;97832.16;8416326;28;20524;-67
2021/08/28 03:17:32;;;;;;;3.23;2.90;;;;;;;16.49;66.28;97823.28;8416317;28;20416;-68
2021/08/28 03:21:36;;;;;;;4.37;2.30;;;;;;;16.60;66.40;97827.72;8415812;28;20199;-68
2021/08/28 03:25:40;;;;;;;3.70;2.77;;;;;;;16.48;66.25;97824.22;8416241;28;20210;-68
2021/08/28 03:29:45;;;;;;;4.20;2.50;;;;;;;16.48;66.38;97818.16;8415798;28;20505;-67
2021/08/28 03:33:48;;;;;;;3.33;2.80;;;;;;;16.36;66.66;97825.91;8415759;28;20206;-67
2021/08/28 03:37:51;;;;;;;4.23;2.70;;;;;;;16.39;66.66;97820.50;8416181;28;20227;-67
2021/08/28 03:41:56;;;;;;;2.77;2.57;;;;;;;16.42;66.04;97811.59;8415630;28;20495;-67
2021/08/28 03:45:58;;;;;;;3.30;2.63;;;;;;;16.37;66.38;97821.53;8415586;28;20381;-67
2021/08/28 03:50:01;;;;;;;3.33;2.67;;;;;;;16.37;66.70;97826.75;8415225;28;20412;-67
2021/08/28 03:54:04;;;;;;;3.07;2.33;;;;;;;16.43;66.11;97831.56;8415637;28;20494;-68
2021/08/28 03:58:08;;;;;;;2.77;2.40;;;;;;;16.40;66.21;97824.75;8417955;28;20415;-67
2021/08/28 04:02:11;;;;;;;4.73;2.77;;;;;;;16.48;65.98;97828.63;8421499;28;20234;-67
2021/08/28 04:06:14;;;;;;;2.63;2.43;;;;;;;16.53;65.87;97834.38;8421640;28;20207;-67
2021/08/28 04:10:19;;;;;;;5.93;2.60;;;;;;;16.61;65.75;97832.03;8421121;28;20210;-67
2021/08/28 04:14:23;;;;;;;2.37;2.17;;;;;;;16.50;66.03;97840.63;8421345;28;20199;-67
2021/08/28 04:18:26;;;;;;;3.07;2.30;;;;;;;16.41;66.33;97841.25;8420792;28;20229;-67
2021/08/28 04:22:28;;;;;;;2.60;2.40;;;;;;;16.48;65.68;97841.69;8421116;28;20199;-67
2021/08/28 04:26:31;;;;;;;4.50;2.27;;;;;;;16.44;66.19;97841.06;8420751;28;20203;-67
2021/08/28 04:30:35;;;;;;;4.03;2.17;;;;;;;16.42;66.12;97842.94;8420686;28;20207;-67
2021/08/28 04:34:38;;;;;;;5.20;2.57;;;;;;;16.17;67.47;97849.88;8420528;28;20203;-67
2021/08/28 04:38:41;;;;;;;4.10;2.40;;;;;;;16.38;66.32;97852.78;8420429;28;20234;-68
2021/08/28 04:42:44;;;;;;;3.93;2.40;;;;;;;16.46;66.19;97843.56;8420545;28;20199;-68
2021/08/28 04:46:48;;;;;;;3.13;2.17;;;;;;;16.38;66.30;97846.72;8420298;28;20210;-67
2021/08/28 04:50:51;;;;;;;6.90;2.40;;;;;;;16.30;65.90;97855.09;8420169;28;20218;-67
2021/08/28 04:54:53;;;;;;;2.70;2.50;;;;;;;16.38;66.13;97863.22;8420419;28;20388;-68
2021/08/28 04:58:56;;;;;;;4.37;2.20;;;;;;;16.33;66.73;97854.03;8419716;28;20223;-68
2021/08/28 05:03:00;;;;;;;3.77;2.53;;;;;;;16.32;66.43;97863.66;8419649;28;20242;-68
2021/08/28 05:07:04;;;;;;;3.70;2.40;;;;;;;16.42;66.35;97858.63;8419712;28;20484;-67
2021/08/28 05:11:06;;;;;;;2.93;2.10;;;;;;;16.47;66.53;97860.91;8418719;28;20384;-67
2021/08/28 05:15:10;;;;;;;4.43;2.30;;;;;;;16.46;66.39;97860.09;8419165;28;20203;-67
2021/08/28 05:19:14;;;;;;;3.90;2.63;;;;;;;16.34;66.75;97861.78;8419318;28;20230;-67
2021/08/28 05:23:17;;;;;;;3.53;2.60;;;;;;;16.42;66.35;97867.28;8419131;28;20211;-67
2021/08/28 05:27:20;;;;;;;3.50;2.40;;;;;;;16.47;66.23;97868.75;8418991;28;20512;-67
2021/08/28 05:31:23;;;;;;;3.07;2.60;;;;;;;16.36;66.57;97877.34;8418832;28;20206;-67
2021/08/28 05:35:27;;;;;;;4.23;2.57;;;;;;;16.34;66.55;97879.25;8418878;28;20205;-67
2021/08/28 05:39:30;;;;;;;3.67;2.50;;;;;;;16.22;66.93;97871.31;8418359;28;20235;-67
2021/08/28 05:43:33;;;;;;;3.23;2.40;;;;;;;16.15;66.83;97877.06;8418320;28;20199;-67
2021/08/28 05:47:36;;;;;;;3.00;2.40;;;;;;;16.08;66.87;97874.03;8418203;28;20202;-67
2021/08/28 05:51:40;;;;;;;2.73;1.90;;;;;;;16.15;66.42;97875.28;8418066;28;20222;-67
2021/08/28 05:55:42;;;;;;;2.33;1.80;;;;;;;16.12;66.38;97874.66;8417888;28;20218;-67
2021/08/28 05:59:45;;;;;;;4.40;2.20;;;;;;;16.17;66.17;97876.00;8417823;28;20227;-67
2021/08/28 06:03:48;;;;;;;2.03;1.60;;;;;;;16.27;65.73;97868.38;8417455;28;20242;-67
2021/08/28 06:07:52;;;;;;;2.93;1.70;;;;;;;16.33;65.10;97874.94;8417600;28;20387;-67
2021/08/28 06:11:56;;;;;;;4.63;1.70;;;;;;;16.31;65.65;97877.66;8417414;28;20210;-67
2021/08/28 06:15:59;;;;;;;2.13;1.73;;;;;;;16.57;65.26;97881.06;8417387;28;20199;-67
2021/08/28 06:20:02;;;;;;;2.33;1.67;;;;;;;16.58;64.93;97879.28;8416689;28;20288;-67
2021/08/28 06:24:06;;;;;;;2.60;1.83;;;;;;;16.48;65.54;97886.13;8417021;28;20199;-68
2021/08/28 06:28:09;;;;;;;3.60;1.93;;;;;;;16.51;65.14;97886.75;8416998;28;20206;-67
2021/08/28 06:32:12;;;;;;;4.00;1.60;;;;;;;16.54;64.97;97883.91;8416807;28;20203;-67
2021/08/28 06:36:15;;;;;;;3.43;1.63;;;;;;;16.50;64.65;97879.81;8416777;28;20199;-67
2021/08/28 06:40:19;;;;;;;3.10;1.50;;;;;;;16.74;65.05;97885.13;8416001;28;20219;-68
2021/08/28 06:44:22;;;;;;;2.47;1.70;;;;;;;16.85;65.01;97883.53;8415725;28;20224;-68
2021/08/28 06:48:25;;;;;;;2.90;1.80;;;;;;;16.78;65.07;97889.19;8415527;28;20408;-68
2021/08/28 06:52:28;;;;;;;2.53;1.63;;;;;;;16.59;65.58;97900.09;8418168;28;20213;-68
2021/08/28 06:56:32;;;;;;;4.77;1.80;;;;;;;16.69;65.19;97902.06;8432123;28;20198;-68
2021/08/28 07:00:35;;;;;;;3.40;1.90;;;;;;;16.55;64.89;97903.88;8426538;28;20416;-67
2021/08/28 07:04:38;;;;;;;2.13;1.60;;;;;;;16.61;64.80;97903.44;8415198;28;21202;-67
2021/08/28 07:08:41;;;;;;;4.13;1.80;;;;;;;16.54;64.57;97904.81;8412923;28;20396;-68
2021/08/28 07:12:45;;;;;;;3.30;1.80;;;;;;;16.57;64.05;97906.41;8415229;28;20206;-68
2021/08/28 07:16:48;;;;;;;3.97;1.80;;;;;;;16.69;64.76;97905.53;8414745;28;20195;-68
2021/08/28 07:20:51;;;;;;;3.10;1.60;;;;;;;16.87;64.07;97910.41;8414951;28;20218;-68
2021/08/28 07:24:53;;;;;;;5.67;1.93;;;;;;;16.81;64.56;97909.91;8418442;28;20195;-68
2021/08/28 07:28:58;;;;;;;3.33;1.90;;;;;;;17.11;63.41;97910.47;8415614;28;20302;-67
2021/08/28 07:33:00;;;;;;;2.17;1.67;;;;;;;17.17;63.03;97912.63;8418393;28;20214;-68
2021/08/28 07:37:04;;;;;;;3.23;1.70;;;;;;;16.94;63.40;97909.88;8422410;28;20213;-68
2021/08/28 07:41:06;;;;;;;3.20;1.80;;;;;;;17.18;62.72;97914.31;8422037;28;20230;-68
2021/08/28 07:45:14;;;;;;;4.03;1.70;;;;;;;17.33;62.31;97902.72;8422206;28;20252;-67
2021/08/28 07:49:17;;;;;;;3.53;1.90;;;;;;;17.33;61.91;97917.59;8421929;28;20407;-67
2021/08/28 07:53:19;;;;;;;2.37;1.80;;;;;;;17.32;62.79;97908.91;8421920;28;20206;-67
2021/08/28 07:57:22;;;;;;;3.37;1.87;;;;;;;17.62;62.32;97912.00;8421522;28;20199;-68
2021/08/28 08:01:26;;;;;;;5.43;1.87;;;;;;;17.62;62.22;97907.59;8421578;28;20199;-68
2021/08/28 08:05:30;;;;;;;3.20;1.90;;;;;;;17.91;61.67;97904.63;8421293;28;20241;-68
2021/08/28 08:09:32;;;;;;;2.83;2.00;;;;;;;17.72;61.66;97905.97;8421393;28;20370;-67
2021/08/28 08:13:35;;;;;;;2.80;1.90;;;;;;;17.99;61.14;97904.88;8421233;28;20199;-68
2021/08/28 08:17:39;;;;;;;3.63;1.93;;;;;;;18.26;60.58;97903.72;8420889;28;20218;-68
2021/08/28 08:21:46;;;;;;;5.60;1.90;;;;;;;18.58;59.49;97905.66;8421214;28;20214;-67
2021/08/28 08:25:48;;;;;;;5.00;2.00;;;;;;;18.55;58.54;97909.34;8421087;28;20390;-68
2021/08/28 08:29:51;;;;;;;2.23;1.90;;;;;;;18.45;59.97;97909.25;8420745;28;20211;-68
2021/08/28 08:33:55;;;;;;;3.60;2.07;;;;;;;18.35;59.17;97916.13;8420625;28;20222;-68
2021/08/28 08:37:58;;;;;;;2.57;2.00;;;;;;;18.25;59.79;97920.41;8420603;28;20227;-69
2021/08/28 08:42:02;;;;;;;2.57;1.80;;;;;;;18.20;60.11;97918.16;8420492;28;20389;-69
2021/08/28 08:46:04;;;;;;;2.70;2.00;;;;;;;18.19;58.62;97916.47;8419251;28;20489;-70
2021/08/28 08:50:09;;;;;;;3.13;1.90;;;;;;;18.20;58.64;97914.69;8420060;28;20219;-68
2021/08/28 08:54:12;;;;;;;3.37;1.83;;;;;;;18.64;57.26;97907.78;8420022;28;20199;-68
2021/08/28 08:58:15;;;;;;;4.67;2.17;;;;;;;19.37;56.85;97901.13;8419300;28;20222;-67
2021/08/28 09:02:18;;;;;;;5.50;2.00;;;;;;;18.69;57.83;97911.72;8419628;28;20309;-67
2021/08/28 09:06:23;;;;;;;5.30;3.37;;;;;;;18.33;56.96;97907.53;8419876;28;20199;-67
2021/08/28 09:10:26;;;;;;;3.63;2.30;;;;;;;18.61;57.89;97903.63;8419579;28;20203;-67
2021/08/28 09:14:29;;;;;;;2.23;1.60;;;;;;;18.67;58.44;97913.63;8419433;28;20203;-67
2021/08/28 09:18:50;;;;;;;4.90;2.50;;;;;;;18.55;56.85;97909.34;8419208;28;20223;-66
2021/08/28 09:23:04;;;;;;;3.47;2.60;;;;;;;18.32;57.25;97905.91;8419311;28;20199;-67
2021/08/28 09:27:07;;;;;;;5.77;1.60;;;;;;;18.46;57.65;97896.94;8418897;28;20199;-66
2021/08/28 09:31:37;;;;;;;4.13;1.70;;;;;;;18.54;58.33;97910.28;8418336;28;20211;-66
2021/08/28 09:35:41;;;;;;;3.63;2.00;;;;;;;18.63;58.02;97916.63;8419093;28;20513;-67
2021/08/28 09:39:47;;;;;;;11.67;6.20;;;;;;;19.11;57.64;97911.94;8418577;28;20521;-66
2021/08/28 09:43:49;;;;;;;9.27;6.13;;;;;;;20.78;52.92;97901.59;8418623;28;20199;-66
2021/08/28 09:47:54;;;;;;;8.70;4.00;;;;;;;21.79;49.34;97891.72;8418256;28;20199;-66
2021/08/28 09:51:57;;;;;;;11.00;4.27;;;;;;;20.56;52.23;97892.09;8417788;28;20203;-67
2021/08/28 09:56:03;;;;;;;5.87;3.13;;;;;;;20.31;53.19;97891.56;8417665;28;20406;-67
2021/08/28 10:00:09;;;;;;;6.83;3.17;;;;;;;19.90;53.67;97902.94;8417789;28;20224;-67
2021/08/28 10:04:12;;;;;;;5.03;2.47;;;;;;;19.80;53.32;97905.50;8417294;28;20233;-67
2021/08/28 10:08:16;;;;;;;7.87;3.10;;;;;;;19.67;53.74;97900.41;8417864;28;20199;-66
2021/08/28 10:12:22;;;;;;;5.77;3.03;;;;;;;20.48;51.32;97899.78;8417584;28;20266;-66
2021/08/28 10:16:25;;;;;;;1.87;1.13;;;;;;;21.52;48.05;97896.91;8417404;28;20199;-66
2021/08/28 10:20:29;;;;;;;2.83;1.70;;;;;;;21.05;49.40;97898.31;8417180;28;20227;-66
2021/08/28 10:24:31;;;;;;;2.37;1.80;;;;;;;21.83;47.52;97885.19;8416981;28;20237;-66
2021/08/28 10:28:36;;;;;;;3.53;1.20;;;;;;;22.59;46.06;97891.41;8417041;28;20242;-66
2021/08/28 10:32:39;;;;;;;1.37;0.90;;;;;;;21.95;47.19;97885.91;8417177;28;20434;-66
2021/08/28 10:36:42;;;;;;;5.87;1.60;;;;;;;21.27;48.27;97896.44;8417062;28;20206;-66
2021/08/28 10:40:45;;;;;;;2.43;1.50;;;;;;;20.94;50.89;97903.69;8415800;28;20217;-66
2021/08/28 10:44:51;;;;;;;14.20;2.23;;;;;;;20.14;48.04;97907.91;8415754;28;20191;-66
2021/08/28 10:48:55;;;;;;;6.37;3.30;;;;;;;19.65;53.11;97917.25;8415688;28;20224;-66
2021/08/28 10:53:00;;;;;;;3.63;1.90;;;;;;;19.45;52.72;97913.63;8415610;28;20193;-66
2021/08/28 10:57:03;;;;;;;2.93;1.90;;;;;;;19.42;53.48;97924.38;8412865;28;20391;-66
2021/08/28 11:01:07;;;;;;;4.47;2.37;;;;;;;19.32;54.77;97924.28;8415361;28;20220;-66
2021/08/28 11:05:15;;;;;;;4.87;2.33;;;;;;;19.04;55.27;97936.16;8415260;28;20232;-66
2021/08/28 11:09:18;;;;;;;3.13;2.10;;;;;;;18.74;56.54;97938.44;8414569;28;20198;-66
2021/08/28 11:13:22;;;;;;;4.30;2.10;;;;;;;18.75;55.99;97934.88;8412504;28;20203;-67
2021/08/28 11:17:37;;;;;;;2.30;1.60;;;;;;;18.69;56.78;97937.94;8415540;28;20195;-66
2021/08/28 11:21:42;;;;;;;3.40;1.50;;;;;;;18.71;56.93;97927.34;8415051;28;20219;-66
2021/08/28 11:25:48;;;;;;;4.80;1.30;;;;;;;18.83;57.47;97929.03;8412700;28;20198;-66
2021/08/28 11:29:50;;;;;;;2.03;1.20;;;;;;;18.83;57.61;97934.28;8414974;28;20210;-67
2021/08/28 11:34:07;;;;;;;3.47;1.27;;;;;;;18.79;57.54;97929.34;8414879;28;20195;-66
2021/08/28 11:38:11;;;;;;;1.93;1.30;;;;;;;18.94;57.69;97936.91;8413138;28;20191;-66
2021/08/28 11:42:14;;;;;;;2.23;1.40;;;;;;;19.18;56.54;97929.81;8414617;28;20230;-66
2021/08/28 11:46:18;;;;;;;1.70;1.30;;;;;;;19.29;56.40;97929.78;8414765;28;20387;-66
2021/08/28 11:50:29;;;;;;;1.53;1.10;;;;;;;19.72;55.42;97934.19;8414867;28;20215;-66
2021/08/28 11:54:32;;;;;;;1.37;1.10;;;;;;;19.72;56.44;97923.69;8413143;28;20203;-66
2021/08/28 11:58:48;;;;;;;3.00;1.37;;;;;;;19.70;55.46;97925.56;8414487;28;20204;-66
2021/08/28 12:02:56;;;;;;;10.33;1.67;;;;;;;19.62;55.20;97914.88;8412877;28;20218;-66
2021/08/28 12:07:02;;;;;;;2.93;1.33;;;;;;;19.62;55.33;97928.81;8414532;28;20514;-66
2021/08/28 12:11:05;;;;;;;1.33;1.10;;;;;;;19.78;55.29;97927.59;8415205;28;20210;-67
2021/08/28 12:15:09;;;;;;;11.23;1.63;;;;;;;19.69;55.25;97916.88;8415026;28;20491;-66
2021/08/28 12:19:16;;;;;;;8.20;1.30;;;;;;;19.86;54.78;97915.50;8417859;28;20206;-66
2021/08/28 12:23:20;;;;;;;7.60;1.40;;;;;;;20.17;54.14;97912.94;8420316;28;20193;-66
2021/08/28 12:27:23;;;;;;;3.77;1.17;;;;;;;20.27;53.46;97918.22;8417458;28;20191;-66
2021/08/28 12:31:26;;;;;;;2.40;1.20;;;;;;;20.83;52.49;97922.25;8420332;28;20200;-66
2021/08/28 12:35:29;;;;;;;4.47;1.00;;;;;;;20.75;52.72;97922.91;8420284;28;20202;-66
2021/08/28 12:39:34;;;;;;;2.47;1.00;;;;;;;21.25;50.83;97924.72;8420502;28;20228;-66
2021/08/28 12:43:37;;;;;;;11.07;1.30;;;;;;;21.48;50.66;97920.88;8420479;28;20207;-66
2021/08/28 12:47:42;;;;;;;6.53;1.70;;;;;;;21.18;50.92;97923.59;8420388;28;20199;-66
2021/08/28 12:51:59;;;;;;;2.97;0.80;;;;;;;20.92;50.57;97918.78;8420303;28;20224;-66
2021/08/28 12:56:07;;;;;;;3.60;0.90;;;;;;;20.72;49.48;97922.34;8419941;28;20195;-68
2021/08/28 13:00:11;;;;;;;3.70;0.90;;;;;;;20.63;50.77;97916.09;8419907;28;20231;-68
2021/08/28 13:04:14;;;;;;;1.93;0.70;;;;;;;20.78;50.96;97908.66;8419550;28;20592;-65
2021/08/28 13:08:20;;;;;;;7.33;1.20;;;;;;;21.56;49.00;97906.19;8419115;28;20191;-66
2021/08/28 13:12:43;;;;;;;2.67;0.90;;;;;;;22.04;47.62;97900.84;8418514;28;20372;-66
2021/08/28 13:16:53;;;;;;;1.40;0.80;;;;;;;22.57;46.37;97906.56;8418034;28;20284;-66
2021/08/28 13:20:56;;;;;;;2.47;0.80;;;;;;;22.65;45.76;97896.91;8418900;28;20223;-66
2021/08/28 13:24:58;;;;;;;1.93;0.70;;;;;;;22.10;46.37;97895.97;8418781;28;20513;-67
2021/08/28 13:29:02;;;;;;;1.67;1.00;;;;;;;22.09;45.50;97895.16;8418779;28;20521;-67
2021/08/28 13:33:07;;;;;;;0.70;0.70;;;;;;;21.97;47.33;97901.56;8418621;28;20214;-67
2021/08/28 13:37:10;;;;;;;1.20;0.80;;;;;;;21.91;48.03;97915.31;8418743;28;20199;-67
2021/08/28 13:41:14;;;;;;;1.53;0.80;;;;;;;21.60;48.00;97912.84;8418700;28;20412;-67
2021/08/28 13:45:18;;;;;;;2.23;1.10;;;;;;;21.17;48.87;97917.50;8418361;28;20206;-67
2021/08/28 13:49:21;;;;;;;2.00;1.10;;;;;;;20.98;49.97;97917.44;8418221;28;20219;-69
2021/08/28 13:53:24;;;;;;;1.10;0.70;;;;;;;20.77;49.08;97906.97;8418074;28;20209;-68
2021/08/28 13:57:26;;;;;;;0.93;0.80;;;;;;;20.67;51.08;97912.22;8417824;28;20201;-67
2021/08/28 14:01:31;;;;;;;1.67;1.20;;;;;;;20.39;52.74;97909.31;8418289;28;20234;-68
2021/08/28 14:05:34;;;;;;;3.40;1.20;;;;;;;20.14;52.63;97907.91;8417865;28;20236;-67
2021/08/28 14:09:37;;;;;;;1.00;1.00;;;;;;;20.09;53.24;97907.50;8417681;28;20368;-67
2021/08/28 14:13:40;;;;;;;1.10;1.00;;;;;;;20.17;53.93;97906.84;8417511;28;20216;-67
2021/08/28 14:17:44;;;;;;;1.07;0.80;;;;;;;20.25;55.08;97910.47;8417124;28;20212;-67
2021/08/28 14:21:47;;;;;;;0.90;0.90;;;;;;;20.20;55.98;97917.94;8417178;28;20228;-67
2021/08/28 14:25:50;;;;;;;1.27;1.17;;;;;;;19.90;57.19;97921.34;8417211;28;20361;-67
2021/08/28 14:29:53;;;;;;;1.50;0.90;;;;;;;20.23;57.10;97916.84;8416968;28;20217;-67
2021/08/28 14:33:57;;;;;;;1.13;1.03;;;;;;;20.73;56.20;97922.19;8416903;28;20201;-67
2021/08/28 14:38:00;;;;;;;1.10;1.00;;;;;;;20.78;56.16;97921.81;8416737;28;20206;-67
2021/08/28 14:42:03;;;;;;;1.73;0.70;;;;;;;20.70;55.25;97925.94;8415884;28;20232;-67
2021/08/28 14:46:06;;;;;;;0.80;0.80;;;;;;;20.97;54.38;97919.25;8416571;28;20209;-67
2021/08/28 14:50:11;;;;;;;2.27;1.00;;;;;;;21.26;52.72;97921.09;8416783;28;20414;-67
2021/08/28 14:54:14;;;;;;;1.30;1.20;;;;;;;21.53;52.49;97909.91;8416634;28;20517;-67
2021/08/28 14:58:17;;;;;;;1.70;1.37;;;;;;;20.84;52.67;97913.38;8416040;28;20195;-67
2021/08/28 15:02:19;;;;;;;2.20;1.40;;;;;;;20.57;53.38;97916.59;8415452;28;20235;-67
2021/08/28 15:06:24;;;;;;;0.70;0.70;;;;;;;20.86;52.73;97917.53;8415627;28;20195;-67
2021/08/28 15:10:26;;;;;;;0.70;0.70;;;;;;;20.55;51.39;97919.34;8416084;28;20203;-68
2021/08/28 15:14:29;;;;;;;0.97;0.87;;;;;;;20.41;53.00;97917.91;8416150;28;20223;-67
2021/08/28 15:18:34;;;;;;;0.70;0.70;;;;;;;20.26;52.40;97933.19;8416091;28;20213;-66
2021/08/28 15:22:39;;;;;;;0.80;0.80;;;;;;;20.22;51.87;97930.94;8416265;28;20316;-66
2021/08/28 15:26:41;;;;;;;0.70;0.70;;;;;;;20.22;50.96;97930.94;8415795;28;20203;-66
2021/08/28 15:30:44;;;;;;;0.90;0.70;;;;;;;20.18;51.11;97932.16;8415916;28;20494;-65
2021/08/28 15:34:47;;;;;;;1.47;0.70;;;;;;;20.15;50.81;97943.78;8415769;28;20212;-66
2021/08/28 15:38:51;;;;;;;1.47;0.70;;;;;;;20.83;50.05;97935.41;8415895;28;20199;-66
2021/08/28 15:42:54;;;;;;;1.83;0.80;;;;;;;21.01;50.76;97935.59;8415517;28;20237;-66
2021/08/28 15:46:57;;;;;;;1.20;0.80;;;;;;;20.74;50.29;97933.59;8415303;28;20225;-65
2021/08/28 15:51:00;;;;;;;2.27;1.07;;;;;;;20.98;50.06;97933.22;8415321;28;20234;-61
2021/08/28 15:55:04;;;;;;;3.50;1.03;;;;;;;21.23;50.23;97934.56;8419879;28;20219;-61
2021/08/28 15:59:07;;;;;;;4.37;1.37;;;;;;;21.05;50.56;97934.34;8421555;28;20399;-61
2021/08/28 16:03:10;;;;;;;4.27;1.20;;;;;;;20.84;49.79;97937.88;8421083;28;20243;-61
2021/08/28 16:07:13;;;;;;;3.43;1.20;;;;;;;20.84;49.92;97935.25;8421460;28;20203;-61
2021/08/28 16:11:18;;;;;;;5.13;1.47;;;;;;;20.81;50.46;97942.59;8421346;28;20211;-61
2021/08/28 16:15:21;;;;;;;3.77;1.30;;;;;;;20.73;49.88;97940.63;8421233;28;20486;-61
2021/08/28 16:19:24;;;;;;;2.97;0.80;;;;;;;20.75;49.73;97943.13;8421438;28;20395;-61
2021/08/28 16:23:26;;;;;;;2.17;0.70;;;;;;;20.67;48.95;97941.16;8420921;28;20525;-61
2021/08/28 16:27:31;;;;;;;5.07;1.27;;;;;;;20.66;50.80;97936.88;8420845;28;20214;-61
2021/08/28 16:31:34;;;;;;;14.53;1.67;;;;;;;20.53;50.94;97929.16;8420809;28;20218;-61
2021/08/28 16:35:37;;;;;;;8.10;1.47;;;;;;;20.40;51.26;97925.91;8420130;28;20503;-61
2021/08/28 16:39:41;;;;;;;12.60;1.63;;;;;;;20.30;51.26;97925.88;8420019;28;20219;-62
2021/08/28 16:43:45;;;;;;;10.43;1.20;;;;;;;20.15;51.48;97928.00;8427936;28;20225;-61
2021/08/28 16:47:52;;;;;;;15.30;1.50;;;;;;;20.09;51.97;97921.47;8425606;28;20561;-62
2021/08/28 16:51:54;;;;;;;6.57;1.00;;;;;;;20.00;51.82;97929.28;8430503;28;20209;-61
2021/08/28 16:55:57;;;;;;;15.90;1.40;;;;;;;19.91;52.03;97930.88;8434830;28;20200;-61
2021/08/28 17:00:01;;;;;;;3.70;1.00;;;;;;;19.85;52.27;97928.75;8430450;28;20195;-61
2021/08/28 17:04:04;;;;;;;3.60;0.80;;;;;;;19.80;52.45;97934.41;8433586;28;20235;-63
2021/08/28 17:08:07;;;;;;;1.23;0.60;;;;;;;19.52;51.13;97936.63;8446936;28;20206;-60
2021/08/28 17:12:10;;;;;;;0.67;0.60;;;;;;;19.45;51.36;97935.47;8453111;28;20395;-60
2021/08/28 17:16:14;;;;;;;2.03;0.73;;;;;;;19.34;51.98;97931.09;8429170;28;20203;-60
2021/08/28 17:20:17;;;;;;;0.50;0.50;;;;;;;19.22;52.38;97936.50;8419310;28;20206;-59
2021/08/28 17:24:20;;;;;;;1.43;0.53;;;;;;;19.13;52.31;97930.19;8419034;28;20230;-60
2021/08/28 17:28:23;;;;;;;1.43;0.60;;;;;;;19.10;52.49;97935.69;8424416;28;20199;-61
2021/08/28 17:32:28;;;;;;;0.97;0.70;;;;;;;19.03;52.48;97937.13;8420952;28;20206;-59
2021/08/28 17:36:31;;;;;;;0.83;0.60;;;;;;;18.86;53.35;97943.69;8418759;28;20200;-59
2021/08/28 17:40:34;;;;;;;0.93;0.63;;;;;;;18.89;54.22;97939.06;8418752;28;20205;-60
2021/08/28 17:44:37;;;;;;;0.70;0.70;;;;;;;18.87;54.96;97938.34;8418109;28;20321;-60
2021/08/28 17:48:41;;;;;;;1.83;0.90;;;;;;;18.88;54.90;97942.63;8418348;28;20382;-60
2021/08/28 17:52:44;;;;;;;0.80;0.80;;;;;;;18.75;55.66;97942.72;8418072;28;20203;-60
2021/08/28 17:56:46;;;;;;;2.57;0.83;;;;;;;18.70;55.99;97949.28;8417850;28;20199;-60
2021/08/28 18:00:50;;;;;;;1.63;0.80;;;;;;;18.56;57.36;97948.56;8418012;28;20253;-60
2021/08/28 18:04:54;;;;;;;1.23;0.67;;;;;;;18.42;57.89;97951.41;8417641;28;20643;-60
2021/08/28 18:08:59;;;;;;;1.33;0.80;;;;;;;18.40;57.76;97955.94;8417737;28;20210;-60
2021/08/28 18:13:01;;;;;;;7.93;1.43;;;;;;;18.50;57.82;97961.31;8417642;28;20209;-60
2021/08/28 18:17:04;;;;;;;2.60;1.10;;;;;;;18.42;58.19;97964.53;8417473;28;20210;-60
2021/08/28 18:21:09;;;;;;;1.87;1.50;;;;;;;18.36;59.06;97960.56;8417180;28;20205;-60
2021/08/28 18:25:13;;;;;;;2.87;1.57;;;;;;;18.36;58.99;97967.63;8417171;28;20270;-60
2021/08/28 18:29:16;;;;;;;2.10;1.90;;;;;;;18.36;58.39;97973.69;8417115;28;20199;-60
2021/08/28 18:33:19;;;;;;;11.70;3.13;;;;;;;18.35;59.26;97977.28;8427548;28;20201;-61
2021/08/28 18:37:23;;;;;;;4.03;2.10;;;;;;;18.30;59.21;97984.66;8438505;28;20497;-62
2021/08/28 18:41:26;;;;;;;5.30;1.90;;;;;;;18.27;59.21;97990.09;8450122;28;20391;-61
2021/08/28 18:45:29;;;;;;;2.10;1.90;;;;;;;18.16;59.33;98006.66;8450308;28;20202;-60
2021/08/28 18:49:32;;;;;;;4.73;1.83;;;;;;;18.13;59.34;98006.88;8441258;28;20217;-60
2021/08/28 18:53:36;;;;;;;2.10;1.60;;;;;;;18.06;59.36;98010.06;8432386;28;20195;-60
2021/08/28 18:57:39;;;;;;;2.93;1.50;;;;;;;17.89;59.80;98016.56;8430505;28;20198;-60
2021/08/28 19:01:42;;;;;;;2.33;1.40;;;;;;;17.96;59.96;98007.31;8428014;28;20233;-72
2021/08/28 19:05:45;;;;;;;3.47;1.80;;;;;;;17.96;60.11;98020.41;8416210;28;20199;-72
2021/08/28 19:09:50;;;;;;;4.67;2.50;;;;;;;17.91;59.99;98022.50;8416215;28;20203;-72